Time;durP1;ratioP1;P1;durP2;ratioP2;P2;SDS_P1;SDS_P2;PMS_P1;PMS_P2;Temp;Humidity;BMP_temperature;BMP_pressure;BME280_temperature;BME280_humidity;BME280_pressure;Samples;Min_cycle;Max_cycle;Signal;HPM_P1;HPM_P2
2022/10/06 00:01:22;;;;;;;2.40;1.60;;;;;;;12.61;84.82;99330.59;221467;1267;22622;-76
2022/10/06 00:06:29;;;;;;;4.20;2.00;;;;;;;12.62;84.53;99335.21;221622;1267;24447;-75
2022/10/06 00:11:34;;;;;;;2.40;1.60;;;;;;;12.66;84.50;99343.86;221489;1267;22534;-76
2022/10/06 00:16:56;;;;;;;2.40;2.10;;;;;;;12.68;84.29;99344.81;221500;1267;22592;-75
2022/10/06 00:22:02;;;;;;;2.80;1.60;;;;;;;12.71;84.24;99345.09;221816;1267;22551;-76
2022/10/06 00:27:05;;;;;;;4.60;2.10;;;;;;;12.72;84.07;99349.11;221842;1268;24394;-76
2022/10/06 00:32:23;;;;;;;;;;;;;;;;;;;;;
2022/10/06 00:37:37;;;;;;;4.20;2.20;;;;;;;12.69;84.04;99356.52;221584;1267;22652;-77
2022/10/06 00:43:01;;;;;;;3.90;1.70;;;;;;;12.64;84.17;99355.07;221463;1267;22688;-74
2022/10/06 00:48:29;;;;;;;4.00;1.70;;;;;;;12.58;84.27;99363.75;221546;1267;22534;-75
2022/10/06 00:54:12;;;;;;;1.60;1.40;;;;;;;12.55;84.49;99370.72;221692;1267;23888;-74
2022/10/06 00:59:18;;;;;;;1.70;1.60;;;;;;;12.52;84.52;99373.01;221482;1268;25431;-75
2022/10/06 01:09:49;;;;;;;2.50;1.80;;;;;;;12.44;84.79;99378.84;221514;1267;22543;-75
2022/10/06 01:15:35;;;;;;;2.80;1.90;;;;;;;12.38;85.01;99375.09;221731;1267;22551;-75
2022/10/06 01:21:17;;;;;;;3.70;1.90;;;;;;;12.32;85.10;99378.00;221772;1267;22525;-76
2022/10/06 01:26:23;;;;;;;4.60;2.10;;;;;;;12.27;85.42;99374.94;221556;1267;23144;-74
2022/10/06 01:31:27;;;;;;;3.30;2.00;;;;;;;12.22;85.41;99378.27;221668;1267;22696;-76
2022/10/06 01:36:32;;;;;;;7.70;2.00;;;;;;;12.19;85.69;99382.39;221757;1267;23879;-74
2022/10/06 01:42:02;;;;;;;6.90;1.90;;;;;;;12.15;86.00;99374.52;221701;1268;25246;-76
2022/10/06 01:47:46;;;;;;;2.50;2.00;;;;;;;12.12;86.04;99369.11;217823;1267;5346005;-76
2022/10/06 01:52:49;;;;;;;2.10;1.90;;;;;;;12.07;86.33;99375.52;221878;1267;22613;-76
2022/10/06 01:57:51;;;;;;;4.60;2.50;;;;;;;12.00;86.46;99369.02;221501;1267;22556;-75
2022/10/06 02:03:03;;;;;;;2.70;1.90;;;;;;;11.93;86.60;99368.75;221839;1267;22535;-76
2022/10/06 02:08:13;;;;;;;3.10;2.10;;;;;;;11.86;86.98;99375.30;221829;1267;22523;-75
2022/10/06 02:14:18;;;;;;;;;;;;;;;;;;;;;
2022/10/06 02:19:44;;;;;;;2.90;1.90;;;;;;;11.74;87.37;99372.55;221905;1267;25432;-76
2022/10/06 02:24:49;;;;;;;2.10;1.70;;;;;;;11.71;87.74;99377.63;221660;1267;22598;-76
2022/10/06 02:30:04;;;;;;;3.00;2.10;;;;;;;11.67;88.03;99376.35;221716;1267;25559;-75
2022/10/06 02:35:21;;;;;;;4.70;2.40;;;;;;;11.64;87.87;99375.27;221870;1267;22574;-76
2022/10/06 02:40:24;;;;;;;2.70;2.00;;;;;;;11.64;88.19;99385.52;221782;1267;24272;-75
2022/10/06 02:46:14;;;;;;;4.30;2.20;;;;;;;11.62;88.08;99393.03;221758;1267;24198;-75
2022/10/06 02:51:28;;;;;;;4.60;2.20;;;;;;;11.58;88.34;99388.29;221693;1267;22553;-76
2022/10/06 02:56:36;;;;;;;4.50;2.50;;;;;;;11.55;88.20;99385.52;221775;1267;22588;-76
2022/10/06 03:01:39;;;;;;;6.30;2.40;;;;;;;11.51;88.50;99385.23;221711;1267;22531;-76
2022/10/06 03:07:34;;;;;;;3.70;2.30;;;;;;;11.50;88.81;99387.81;221838;1267;23974;-75
2022/10/06 03:12:36;;;;;;;6.80;2.10;;;;;;;11.51;88.82;99392.97;221927;1267;23702;-76
2022/10/06 03:17:40;;;;;;;4.30;2.50;;;;;;;11.44;88.55;99390.92;221543;1267;23139;-76
2022/10/06 03:22:42;;;;;;;3.90;2.50;;;;;;;11.40;88.87;99390.14;221671;1267;25239;-76
2022/10/06 03:27:44;;;;;;;3.70;2.50;;;;;;;11.39;88.93;99393.05;221615;1267;24304;-76
2022/10/06 03:32:47;;;;;;;5.20;2.60;;;;;;;11.38;89.13;99390.20;221912;1267;24775;-74
2022/10/06 03:37:49;;;;;;;3.80;2.20;;;;;;;11.40;89.42;99387.73;221848;1267;22692;-75
2022/10/06 03:42:52;;;;;;;4.80;2.40;;;;;;;11.41;89.64;99391.26;221858;1267;25256;-76
2022/10/06 03:48:00;;;;;;;5.00;2.50;;;;;;;11.43;89.53;99389.36;221324;1270;22554;-76
2022/10/06 03:53:02;;;;;;;5.70;2.60;;;;;;;11.47;89.41;99394.70;221382;1270;22544;-75
2022/10/06 03:58:17;;;;;;;3.70;2.50;;;;;;;11.49;89.18;99396.15;221629;1267;22737;-75
2022/10/06 04:04:21;;;;;;;;;;;;;;;;;;;;;
2022/10/06 04:09:29;;;;;;;3.50;2.50;;;;;;;11.42;89.16;99405.24;221773;1267;24296;-74
2022/10/06 04:14:34;;;;;;;3.80;2.70;;;;;;;11.40;89.24;99416.59;221722;1267;22691;-74
2022/10/06 04:20:01;;;;;;;4.50;2.70;;;;;;;11.38;89.12;99415.84;221715;1268;22522;-76
2022/10/06 04:25:23;;;;;;;2.80;2.50;;;;;;;11.34;89.28;99414.05;221781;1267;22526;-75
2022/10/06 04:30:36;;;;;;;5.10;2.60;;;;;;;11.30;89.73;99417.23;221652;1267;22530;-75
2022/10/06 04:35:38;;;;;;;3.50;2.10;;;;;;;11.26;89.56;99424.72;221661;1267;22526;-75
2022/10/06 04:41:17;;;;;;;3.90;2.40;;;;;;;11.22;89.75;99427.73;221296;1268;24225;-76
2022/10/06 04:46:22;;;;;;;3.70;2.50;;;;;;;11.16;89.71;99432.80;222008;1267;24012;-75
2022/10/06 04:51:44;;;;;;;5.40;2.30;;;;;;;11.08;89.98;99434.66;221461;1267;23041;-76
2022/10/06 04:56:50;;;;;;;5.60;3.00;;;;;;;11.06;90.23;99442.77;221715;1268;22538;-76
2022/10/06 05:01:55;;;;;;;4.20;2.70;;;;;;;11.02;90.47;99446.92;221792;1267;23311;-75
2022/10/06 05:07:00;;;;;;;4.20;2.40;;;;;;;10.98;90.43;99453.48;221752;1267;22574;-75
2022/10/06 05:12:10;;;;;;;5.50;3.00;;;;;;;10.97;90.67;99452.90;221625;1267;22547;-75
2022/10/06 05:17:53;;;;;;;5.90;3.50;;;;;;;10.94;90.85;99455.67;221842;1267;25471;-75
2022/10/06 05:22:55;;;;;;;11.00;5.80;;;;;;;10.96;90.92;99452.69;221915;1267;25326;-74
2022/10/06 05:28:00;;;;;;;6.20;3.80;;;;;;;11.00;91.07;99458.73;221796;1267;26387;-76
2022/10/06 05:33:32;;;;;;;5.60;3.10;;;;;;;11.07;91.24;99464.38;221943;1266;23824;-75
2022/10/06 05:38:36;;;;;;;4.40;3.50;;;;;;;11.18;91.38;99477.91;221916;1268;25282;-76
2022/10/06 05:43:44;;;;;;;4.10;3.30;;;;;;;11.28;91.10;99487.73;222042;1268;22684;-76
2022/10/06 05:48:54;;;;;;;6.90;3.20;;;;;;;11.35;91.07;99494.67;222058;1268;22574;-75
2022/10/06 05:54:58;;;;;;;3.40;3.00;;;;;;;11.41;90.93;99508.01;222300;1266;22703;-76
2022/10/06 06:00:04;;;;;;;8.20;4.90;;;;;;;11.49;91.18;99524.33;222175;1267;26774;-76
2022/10/06 06:05:26;;;;;;;7.00;3.50;;;;;;;11.56;91.01;99526.88;222314;1267;22563;-76
2022/10/06 06:10:29;;;;;;;4.40;2.80;;;;;;;11.62;91.16;99534.84;221967;1267;22859;-73
2022/10/06 06:21:17;;;;;;;6.70;3.20;;;;;;;11.94;91.43;99543.00;221945;1267;22549;-76
2022/10/06 06:26:23;;;;;;;4.00;2.80;;;;;;;12.10;91.22;99547.84;221954;1267;22651;-75
2022/10/06 06:31:30;;;;;;;3.40;2.40;;;;;;;12.22;90.89;99554.92;221913;1267;24219;-76
2022/10/06 06:36:52;;;;;;;3.30;2.80;;;;;;;12.27;90.60;99566.63;222028;1268;25409;-75
2022/10/06 06:42:03;;;;;;;3.70;2.40;;;;;;;12.29;90.38;99565.98;221673;1268;22646;-76
2022/10/06 06:47:36;;;;;;;4.50;2.10;;;;;;;12.32;90.38;99579.48;221835;1270;23803;-75
2022/10/06 06:53:01;;;;;;;5.40;2.60;;;;;;;12.47;90.43;99589.16;221916;1268;25526;-75
2022/10/06 06:58:05;;;;;;;3.80;3.00;;;;;;;12.70;90.25;99593.71;221836;1267;23798;-75
2022/10/06 07:03:39;;;;;;;4.90;2.80;;;;;;;12.92;89.88;99598.40;221960;1268;23812;-75
2022/10/06 07:09:06;;;;;;;5.60;2.90;;;;;;;13.16;89.07;99601.20;221823;1268;24217;-75
2022/10/06 07:14:13;;;;;;;6.10;2.80;;;;;;;13.34;88.25;99595.45;222480;1267;22532;-77
2022/10/06 07:30:35;;;;;;;4.90;2.80;;;;;;;14.13;87.05;99609.50;221386;1271;22548;-77
2022/10/06 07:35:56;;;;;;;3.30;2.30;;;;;;;14.60;86.98;99615.65;221727;1268;25250;-76
2022/10/06 07:41:02;;;;;;;4.30;2.20;;;;;;;14.95;85.86;99622.80;222047;1267;22667;-77
2022/10/06 07:46:33;;;;;;;4.80;2.50;;;;;;;15.19;84.21;99629.77;222288;1268;24257;-78
2022/10/06 07:52:15;;;;;;;11.10;2.90;;;;;;;15.17;83.57;99630.08;222022;1268;22679;-77
2022/10/06 07:57:24;;;;;;;4.90;2.90;;;;;;;15.11;83.96;99633.27;222003;1268;23797;-77
2022/10/06 08:02:29;;;;;;;2.70;2.20;;;;;;;15.26;84.07;99635.60;221940;1268;28422;-76
2022/10/06 08:08:18;;;;;;;2.60;2.40;;;;;;;15.40;83.72;99637.92;222317;1268;22550;-77
2022/10/06 08:13:26;;;;;;;5.00;2.30;;;;;;;15.56;83.32;99650.80;221960;1268;22650;-77
2022/10/06 08:18:28;;;;;;;11.10;2.90;;;;;;;15.76;83.60;99660.30;221690;1268;22543;-76
2022/10/06 08:23:55;;;;;;;4.80;2.30;;;;;;;16.01;82.90;99662.51;221715;1268;23868;-76
2022/10/06 08:29:01;;;;;;;2.70;2.40;;;;;;;16.19;82.37;99672.17;222053;1267;22591;-75
2022/10/06 08:34:07;;;;;;;5.30;2.50;;;;;;;16.34;81.42;99680.13;222109;1267;22558;-75
2022/10/06 08:39:17;;;;;;;4.90;2.40;;;;;;;16.49;81.95;99684.65;221753;1268;22571;-75
2022/10/06 08:44:32;;;;;;;4.40;2.20;;;;;;;16.70;81.96;99682.17;222029;1268;24307;-76
2022/10/06 08:49:43;;;;;;;6.80;2.40;;;;;;;16.89;80.25;99688.63;221969;1268;22999;-76
2022/10/06 08:55:16;;;;;;;3.70;1.90;;;;;;;17.09;80.75;99682.30;222245;1268;23701;-75
2022/10/06 09:00:19;;;;;;;3.20;2.30;;;;;;;17.34;79.88;99679.39;221796;1267;22542;-75
2022/10/06 09:05:29;;;;;;;5.40;2.70;;;;;;;17.49;79.79;99683.11;221808;1268;22557;-76
2022/10/06 09:11:00;;;;;;;10.40;2.50;;;;;;;17.61;79.91;99712.03;222129;1268;22557;-76
2022/10/06 09:16:09;;;;;;;4.50;3.20;;;;;;;17.74;79.29;99719.27;221961;1268;26626;-77
2022/10/06 09:21:49;;;;;;;3.80;2.60;;;;;;;17.90;79.12;99716.02;221896;1268;22593;-77
2022/10/06 09:26:55;;;;;;;4.90;2.70;;;;;;;18.07;78.98;99720.60;221838;1268;24224;-75
2022/10/06 09:32:05;;;;;;;4.40;2.20;;;;;;;18.21;78.87;99725.61;221930;1267;22605;-76
2022/10/06 09:37:14;;;;;;;4.80;2.60;;;;;;;18.36;78.46;99726.66;221964;1270;22709;-76
2022/10/06 09:42:31;;;;;;;6.10;2.50;;;;;;;18.54;78.41;99729.96;222068;1267;22706;-76
2022/10/06 09:47:43;;;;;;;2.40;2.10;;;;;;;18.72;78.21;99737.05;222140;1267;23827;-77
2022/10/06 09:53:39;;;;;;;3.30;1.90;;;;;;;18.81;77.71;99738.23;222119;1267;25290;-75
2022/10/06 09:58:55;;;;;;;5.10;2.20;;;;;;;18.92;77.46;99726.04;221922;1267;25350;-75
2022/10/06 10:04:07;;;;;;;5.50;2.20;;;;;;;19.07;77.52;99731.70;221990;1267;25245;-76
2022/10/06 10:09:47;;;;;;;10.60;2.00;;;;;;;19.17;76.69;99734.08;221996;1267;25519;-76
2022/10/06 10:14:55;;;;;;;2.20;1.90;;;;;;;19.25;76.66;99736.91;221681;1267;22777;-76
2022/10/06 10:20:01;;;;;;;5.30;3.60;;;;;;;19.34;76.15;99733.24;221993;1267;24224;-76
2022/10/06 10:25:39;;;;;;;5.70;2.20;;;;;;;19.46;76.01;99737.23;222263;1267;23315;-76
2022/10/06 10:30:51;;;;;;;5.00;1.60;;;;;;;19.64;75.88;99748.36;222022;1267;22568;-76
2022/10/06 10:36:05;;;;;;;2.50;1.80;;;;;;;19.78;75.46;99750.73;221923;1267;22544;-76
2022/10/06 10:41:24;;;;;;;2.60;1.60;;;;;;;19.89;74.42;99759.21;221943;1267;24346;-75
2022/10/06 10:46:36;;;;;;;2.50;1.60;;;;;;;20.03;74.37;99760.39;221971;1268;22646;-75
2022/10/06 10:51:52;;;;;;;3.60;2.00;;;;;;;20.13;74.50;99771.80;222203;1267;25419;-76
2022/10/06 10:57:20;;;;;;;3.30;1.90;;;;;;;20.21;74.42;99778.66;221499;1271;22543;-76
2022/10/06 11:02:23;;;;;;;2.90;2.10;;;;;;;20.47;74.01;99784.91;221305;1268;24533;-76
2022/10/06 11:07:49;;;;;;;4.00;2.50;;;;;;;20.62;73.73;99786.35;221529;1270;22545;-76
2022/10/06 11:13:23;;;;;;;3.20;1.90;;;;;;;20.73;73.49;99784.29;221815;1271;23013;-76
2022/10/06 11:18:45;;;;;;;2.80;2.20;;;;;;;20.80;73.09;99778.09;221595;1271;22693;-76
2022/10/06 11:24:03;;;;;;;2.70;2.10;;;;;;;20.88;72.85;99775.45;222291;1267;25482;-76
2022/10/06 11:29:18;;;;;;;5.80;3.30;;;;;;;20.95;72.75;99779.05;222100;1267;23926;-75
2022/10/06 11:34:20;;;;;;;4.10;2.20;;;;;;;20.96;72.33;99780.94;221806;1267;22553;-75
2022/10/06 11:39:32;;;;;;;3.00;2.50;;;;;;;20.94;72.39;99773.96;221845;1267;22596;-75
2022/10/06 11:44:43;;;;;;;4.60;2.60;;;;;;;21.06;72.57;99777.73;222136;1267;22727;-75
2022/10/06 11:49:54;;;;;;;5.50;3.00;;;;;;;21.22;72.26;99776.95;222014;1267;22634;-75
2022/10/06 11:55:25;;;;;;;4.00;2.70;;;;;;;21.31;71.74;99778.20;221824;1267;25254;-76
2022/10/06 12:00:34;;;;;;;4.80;2.60;;;;;;;21.43;71.51;99787.66;221811;1267;22580;-76
2022/10/06 12:05:44;;;;;;;3.50;2.30;;;;;;;21.69;71.74;99784.98;222047;1268;25247;-76
2022/10/06 12:11:01;;;;;;;2.30;2.00;;;;;;;21.84;70.61;99783.69;221571;1267;22532;-75
2022/10/06 12:16:14;;;;;;;3.90;2.20;;;;;;;21.85;69.84;99782.08;221720;1267;24312;-75
2022/10/06 12:21:51;;;;;;;4.80;2.30;;;;;;;21.84;70.24;99780.42;222008;1267;23972;-75
2022/10/06 12:27:16;;;;;;;6.10;3.10;;;;;;;21.77;68.98;99787.81;221946;1267;24385;-76
2022/10/06 12:32:47;;;;;;;6.00;2.90;;;;;;;21.70;69.59;99786.66;221991;1267;24415;-75
2022/10/06 12:37:52;;;;;;;5.50;2.50;;;;;;;21.72;70.03;99791.14;222029;1267;22567;-75
2022/10/06 12:43:17;;;;;;;4.60;2.30;;;;;;;21.70;70.04;99788.69;221771;1267;23259;-74
2022/10/06 12:48:19;;;;;;;3.30;2.40;;;;;;;21.67;69.92;99784.98;221718;1267;22606;-74
2022/10/06 12:53:31;;;;;;;3.60;2.50;;;;;;;21.59;69.79;99782.21;221856;1267;23795;-74
2022/10/06 12:58:33;;;;;;;4.10;2.80;;;;;;;21.66;70.07;99790.35;221917;1267;22692;-73
2022/10/06 13:03:36;;;;;;;5.10;2.80;;;;;;;21.63;69.76;99792.55;221817;1267;22609;-75
2022/10/06 13:08:40;;;;;;;5.30;1.70;;;;;;;21.49;69.96;99794.95;222096;1267;25319;-76
2022/10/06 13:13:49;;;;;;;3.60;2.30;;;;;;;21.45;70.11;99796.51;222033;1266;23914;-75
2022/10/06 13:18:55;;;;;;;2.10;1.90;;;;;;;21.39;70.45;99801.84;221777;1267;25503;-75
2022/10/06 13:23:57;;;;;;;4.20;2.00;;;;;;;21.31;70.38;99801.73;222518;1266;25369;-75
2022/10/06 13:29:01;;;;;;;5.40;2.30;;;;;;;21.27;70.45;99809.75;222117;1267;24224;-76
2022/10/06 13:34:08;;;;;;;3.30;1.70;;;;;;;21.24;70.75;99809.47;222110;1267;25468;-76
2022/10/06 13:39:19;;;;;;;5.00;1.80;;;;;;;21.18;70.86;99812.73;221981;1267;22547;-76
2022/10/06 13:44:50;;;;;;;7.50;2.20;;;;;;;21.18;70.99;99815.76;222115;1267;25314;-75
2022/10/06 13:50:00;;;;;;;2.80;1.70;;;;;;;21.16;71.24;99818.31;221916;1267;182584;-77
2022/10/06 13:55:35;;;;;;;3.40;1.50;;;;;;;21.08;70.91;99825.28;209659;1316;542909;-75
2022/10/06 14:00:59;;;;;;;4.00;2.00;;;;;;;20.90;71.15;99830.35;214789;1287;25282;-74
2022/10/06 14:06:15;;;;;;;2.70;2.30;;;;;;;20.65;71.32;99834.88;214490;1293;109360;-75
2022/10/06 14:11:25;;;;;;;6.50;2.70;;;;;;;20.31;71.60;99843.02;215386;1307;24283;-74
2022/10/06 14:16:28;;;;;;;9.00;5.40;;;;;;;19.98;72.45;99857.52;214940;1293;22467;-75
2022/10/06 14:21:43;;;;;;;4.10;2.90;;;;;;;19.74;73.22;99858.39;215027;1309;23123;-74
2022/10/06 14:26:51;;;;;;;3.60;2.20;;;;;;;19.46;73.07;99871.20;214996;1307;23203;-74
2022/10/06 14:31:52;;;;;;;5.70;2.90;;;;;;;19.21;73.54;99868.64;215077;1293;24386;-75
2022/10/06 14:36:56;;;;;;;2.50;2.30;;;;;;;19.00;74.00;99873.59;215001;1292;22522;-75
2022/10/06 14:41:58;;;;;;;4.50;2.50;;;;;;;18.84;74.28;99887.41;215109;1307;26479;-74
2022/10/06 14:46:59;;;;;;;4.00;2.80;;;;;;;18.66;74.71;99887.44;214755;1280;23909;-75
2022/10/06 14:52:01;;;;;;;5.30;3.10;;;;;;;18.53;75.31;99897.73;214952;1303;22513;-75
2022/10/06 14:57:03;;;;;;;4.00;2.40;;;;;;;18.41;75.88;99902.51;214987;1309;22471;-74
2022/10/06 15:02:05;;;;;;;8.90;2.90;;;;;;;18.31;76.47;99904.27;215067;1299;24287;-73
2022/10/06 15:12:28;;;;;;;4.70;2.80;;;;;;;17.93;77.07;99921.62;214842;1286;25388;-74
2022/10/06 15:17:34;;;;;;;5.60;2.80;;;;;;;17.72;77.29;99929.42;214956;1306;25235;-73
2022/10/06 15:22:36;;;;;;;4.40;2.90;;;;;;;17.52;77.46;99933.52;214987;1290;23935;-74
2022/10/06 15:33:03;;;;;;;3.50;2.40;;;;;;;17.24;77.71;99955.77;215203;1298;22505;-76
2022/10/06 15:38:04;;;;;;;5.70;2.80;;;;;;;17.12;78.02;99960.29;215352;1306;22499;-75
2022/10/06 15:43:06;;;;;;;4.20;2.60;;;;;;;16.99;78.23;99963.91;215250;1288;24231;-75
2022/10/06 15:48:08;;;;;;;5.10;2.30;;;;;;;16.84;78.40;99965.64;215064;1282;24445;-74
2022/10/06 15:53:10;;;;;;;2.60;2.40;;;;;;;16.70;78.63;99962.73;215152;1300;24322;-74
2022/10/06 15:58:11;;;;;;;5.50;3.50;;;;;;;16.53;78.64;99967.46;215114;1306;24413;-75
2022/10/06 16:03:26;;;;;;;3.40;2.40;;;;;;;16.35;78.85;99970.19;215078;1283;24298;-74
2022/10/06 16:08:28;;;;;;;4.90;2.90;;;;;;;16.13;78.87;99968.67;215010;1306;22471;-74
2022/10/06 16:13:29;;;;;;;5.40;3.30;;;;;;;15.95;79.11;99976.32;214826;1293;22600;-74
2022/10/06 16:18:31;;;;;;;6.00;3.20;;;;;;;15.77;79.45;99975.96;215087;1282;24351;-75
2022/10/06 16:23:33;;;;;;;7.20;2.80;;;;;;;15.61;79.84;99980.58;215093;1281;24498;-75
2022/10/06 16:28:34;;;;;;;4.60;3.00;;;;;;;15.43;80.12;99987.77;215077;1293;22466;-75
2022/10/06 16:33:36;;;;;;;9.00;3.30;;;;;;;15.28;80.50;99989.11;215165;1290;22476;-74
2022/10/06 16:38:39;;;;;;;4.70;3.60;;;;;;;15.15;80.85;99997.91;215186;1306;22465;-74
2022/10/06 16:43:42;;;;;;;4.40;2.70;;;;;;;15.01;81.01;100002.83;215227;1285;24348;-73
2022/10/06 16:48:46;;;;;;;8.20;3.00;;;;;;;14.88;81.43;100012.08;215151;1284;22478;-75
2022/10/06 16:53:51;;;;;;;11.60;3.50;;;;;;;14.74;81.78;100018.55;215071;1285;22475;-73
2022/10/06 16:58:55;;;;;;;7.30;2.90;;;;;;;14.63;82.01;100022.91;215198;1281;22486;-74
2022/10/06 17:03:58;;;;;;;5.80;3.10;;;;;;;14.52;82.22;100029.46;214974;1306;22481;-74
2022/10/06 17:09:01;;;;;;;3.70;2.80;;;;;;;14.40;82.44;100036.14;215343;1306;25274;-75
2022/10/06 17:14:03;;;;;;;7.80;4.10;;;;;;;14.27;82.80;100042.13;215203;1285;24332;-74
2022/10/06 17:19:06;;;;;;;11.90;5.90;;;;;;;14.13;83.14;100047.02;215292;1297;25432;-75
2022/10/06 17:24:08;;;;;;;14.80;6.60;;;;;;;13.98;83.51;100047.73;215151;1280;22480;-76
2022/10/06 17:29:13;;;;;;;8.60;5.70;;;;;;;13.85;83.85;100056.10;215073;1306;25542;-74
2022/10/06 17:34:17;;;;;;;10.10;6.00;;;;;;;13.71;84.05;100055.64;215122;1295;25421;-74
2022/10/06 17:39:23;;;;;;;7.00;5.00;;;;;;;13.58;84.19;100049.84;215126;1280;22538;-75
2022/10/06 17:44:27;;;;;;;9.70;5.90;;;;;;;13.45;84.30;100057.00;215356;1292;25269;-74
2022/10/06 17:49:33;;;;;;;9.20;5.50;;;;;;;13.34;84.47;100057.85;214984;1306;25364;-73
2022/10/06 17:54:35;;;;;;;9.30;5.80;;;;;;;13.26;84.67;100057.31;215242;1281;22466;-75
2022/10/06 17:59:37;;;;;;;10.10;5.20;;;;;;;13.15;84.76;100057.20;215239;1302;24337;-74
2022/10/06 18:04:39;;;;;;;12.40;7.30;;;;;;;13.06;84.78;100059.16;215042;1277;23777;-74
2022/10/06 18:11:31;;;;;;;101.00;66.20;;;;;;;12.96;84.99;100061.02;215198;1292;22515;-74
2022/10/06 18:15:03;;;;;;;10.40;5.60;;;;;;;12.83;85.09;100070.02;215205;1298;23930;-75
2022/10/06 18:20:05;;;;;;;9.80;5.30;;;;;;;12.72;85.31;100070.09;215198;1306;24510;-74
2022/10/06 18:25:08;;;;;;;10.10;5.30;;;;;;;12.60;85.38;100081.38;215032;1277;22499;-74
2022/10/06 18:30:10;;;;;;;9.30;4.90;;;;;;;12.49;85.49;100084.34;215173;1306;24369;-75
2022/10/06 18:35:12;;;;;;;7.40;5.00;;;;;;;12.39;85.73;100081.55;215209;1280;24401;-74
2022/10/06 18:40:34;;;;;;;15.60;5.40;;;;;;;12.28;85.90;100086.80;215211;1277;22464;-75
2022/10/06 18:51:00;;;;;;;8.60;4.40;;;;;;;12.05;86.21;100094.45;215118;1299;22470;-75
2022/10/06 18:56:03;;;;;;;13.00;4.10;;;;;;;11.94;86.30;100100.90;215108;1285;24880;-74
2022/10/06 19:01:06;;;;;;;14.30;7.90;;;;;;;11.84;86.61;100100.44;215294;1306;22503;-74
2022/10/06 19:06:08;;;;;;;7.70;4.20;;;;;;;11.75;86.68;100105.34;215297;1291;22503;-73
2022/10/06 19:16:31;;;;;;;14.70;9.30;;;;;;;11.56;87.35;100114.34;215253;1283;26369;-75
2022/10/06 19:21:35;;;;;;;18.80;9.30;;;;;;;11.46;87.82;100121.44;215040;1306;22498;-74
2022/10/06 19:26:39;;;;;;;18.70;10.70;;;;;;;11.33;87.73;100127.98;215124;1277;25487;-74
2022/10/06 19:31:46;;;;;;;17.40;10.40;;;;;;;11.21;87.77;100131.12;215092;1306;25239;-74
2022/10/06 19:36:52;;;;;;;21.50;11.30;;;;;;;11.09;88.06;100138.34;215079;1278;24315;-74
2022/10/06 19:47:15;;;;;;;22.00;12.50;;;;;;;10.84;88.63;100136.81;215176;1285;22470;-74
2022/10/06 19:52:17;;;;;;;22.70;12.80;;;;;;;10.72;88.76;100143.39;215224;1277;22570;-74
2022/10/06 19:57:19;;;;;;;25.00;11.90;;;;;;;10.61;89.05;100148.63;215017;1294;24409;-75
2022/10/06 20:02:22;;;;;;;22.50;13.90;;;;;;;10.50;89.35;100151.00;215126;1277;24236;-75
2022/10/06 20:07:26;;;;;;;21.60;13.10;;;;;;;10.40;89.42;100152.69;214900;1304;22514;-74
2022/10/06 20:12:28;;;;;;;20.20;12.30;;;;;;;10.30;89.60;100152.87;215242;1283;24282;-75
2022/10/06 20:17:30;;;;;;;27.60;12.90;;;;;;;10.21;89.92;100155.77;215184;1284;23132;-74
2022/10/06 20:22:32;;;;;;;21.60;13.00;;;;;;;10.11;90.05;100153.20;215121;1298;24337;-74
2022/10/06 20:27:34;;;;;;;22.70;12.90;;;;;;;10.02;90.40;100155.64;215132;1306;25344;-75
2022/10/06 20:32:36;;;;;;;24.10;13.00;;;;;;;9.95;90.68;100156.67;215176;1275;22481;-75
2022/10/06 20:37:40;;;;;;;25.00;12.70;;;;;;;9.88;90.90;100157.61;215160;1282;22497;-74
2022/10/06 20:42:47;;;;;;;19.10;11.70;;;;;;;9.82;91.18;100163.42;215191;1283;26073;-74
2022/10/06 20:47:49;;;;;;;23.80;15.50;;;;;;;9.77;91.96;100167.43;215213;1290;22549;-74
2022/10/06 20:52:53;;;;;;;28.50;16.80;;;;;;;9.69;91.74;100169.80;215057;1291;22905;-74
2022/10/06 20:57:55;;;;;;;31.10;16.70;;;;;;;9.62;92.06;100170.93;215134;1306;25226;-74
2022/10/06 21:02:57;;;;;;;37.00;20.00;;;;;;;9.54;92.09;100172.49;215109;1280;22466;-74
2022/10/06 21:07:59;;;;;;;35.00;19.60;;;;;;;9.48;92.39;100174.48;215196;1306;22465;-74
2022/10/06 21:13:00;;;;;;;36.30;20.30;;;;;;;9.42;92.46;100175.65;214983;1306;24253;-74
2022/10/06 21:18:04;;;;;;;34.70;20.70;;;;;;;9.36;92.53;100176.20;215064;1306;22509;-74
2022/10/06 21:23:06;;;;;;;32.40;20.00;;;;;;;9.32;92.96;100178.33;215206;1285;25286;-74
2022/10/06 21:28:08;;;;;;;40.70;22.40;;;;;;;9.25;92.91;100179.23;215111;1306;25235;-74
2022/10/06 21:33:09;;;;;;;41.70;23.40;;;;;;;9.17;93.16;100180.05;215184;1291;22668;-74
2022/10/06 21:38:11;;;;;;;39.20;21.40;;;;;;;9.10;93.24;100175.28;215130;1306;24338;-74
2022/10/06 21:43:13;;;;;;;35.70;18.70;;;;;;;9.04;93.60;100177.98;215186;1283;22478;-74
2022/10/06 21:48:18;;;;;;;30.50;17.80;;;;;;;9.00;93.61;100177.42;215080;1282;22473;-74
2022/10/06 21:53:20;;;;;;;30.00;17.70;;;;;;;8.95;93.84;100180.29;215096;1275;22497;-74
2022/10/06 21:58:22;;;;;;;33.20;17.80;;;;;;;8.91;93.89;100176.90;215057;1302;22536;-74
2022/10/06 22:03:24;;;;;;;25.10;15.30;;;;;;;8.84;93.98;100174.13;215182;1290;22486;-75
2022/10/06 22:08:29;;;;;;;24.10;15.00;;;;;;;8.79;94.08;100174.30;215094;1306;24095;-74
2022/10/06 22:13:31;;;;;;;23.90;14.30;;;;;;;8.72;94.11;100175.70;215166;1285;22439;-75
2022/10/06 22:18:34;;;;;;;20.80;12.80;;;;;;;8.65;94.13;100173.44;215012;1306;24346;-74
2022/10/06 22:23:36;;;;;;;26.40;14.60;;;;;;;8.58;94.25;100171.48;215171;1277;22457;-74
2022/10/06 22:28:38;;;;;;;23.90;13.70;;;;;;;8.50;94.35;100171.94;215191;1291;22472;-74
2022/10/06 22:33:41;;;;;;;24.20;14.10;;;;;;;8.44;94.60;100168.41;215098;1278;25278;-75
2022/10/06 22:38:43;;;;;;;30.90;15.30;;;;;;;8.37;94.56;100162.71;215034;1291;23200;-74
2022/10/06 22:43:45;;;;;;;23.40;13.40;;;;;;;8.30;94.62;100160.55;215091;1306;22479;-74
2022/10/06 22:48:47;;;;;;;23.20;14.00;;;;;;;8.24;94.77;100155.33;215059;1306;22533;-73
2022/10/06 22:53:57;;;;;;;26.40;13.30;;;;;;;8.17;94.87;100155.99;215168;1290;25461;-74
2022/10/06 22:58:59;;;;;;;;;;;;;;;8.11;94.93;100156.30;215086;1306;24289;-74
2022/10/06 23:04:01;;;;;;;20.20;11.30;;;;;;;8.04;95.06;100157.55;215150;1305;24464;-74
2022/10/06 23:09:03;;;;;;;24.70;12.60;;;;;;;7.98;95.00;100158.30;215071;1305;22449;-74
2022/10/06 23:14:05;;;;;;;23.20;13.40;;;;;;;7.91;95.23;100150.05;215173;1300;22480;-74
2022/10/06 23:19:07;;;;;;;19.70;12.50;;;;;;;7.85;95.27;100150.30;214983;1306;25386;-74
2022/10/06 23:24:09;;;;;;;23.00;13.10;;;;;;;7.79;95.11;100152.32;215192;1280;22467;-74
2022/10/06 23:29:11;;;;;;;23.00;12.50;;;;;;;7.73;95.16;100153.01;215120;1306;22611;-74
2022/10/06 23:34:12;;;;;;;21.90;13.60;;;;;;;7.68;95.31;100152.31;215197;1285;22595;-75
2022/10/06 23:39:14;;;;;;;29.80;14.40;;;;;;;7.63;95.30;100152.00;215086;1306;25239;-75
2022/10/06 23:44:16;;;;;;;24.60;14.50;;;;;;;7.57;95.47;100147.29;215185;1284;25337;-74
2022/10/06 23:49:18;;;;;;;21.70;13.00;;;;;;;7.51;95.52;100147.59;215199;1306;22473;-74
2022/10/06 23:54:20;;;;;;;24.90;14.40;;;;;;;7.45;95.59;100146.23;215202;1282;25267;-74
2022/10/06 23:59:22;;;;;;;22.90;13.30;;;;;;;7.39;95.47;100146.27;215145;1306;24268;-74
